createdAt,value
2018-04-11T00:00:12.248Z,7.60
2018-04-11T00:02:40.514Z,8.13
2018-04-11T00:05:08.799Z,7.53
2018-04-11T00:07:37.084Z,8.63
2018-04-11T00:10:05.656Z,8.18
2018-04-11T00:12:33.923Z,9.83
2018-04-11T00:15:02.214Z,9.87
2018-04-11T00:17:30.527Z,10.27
2018-04-11T00:19:58.839Z,8.73
2018-04-11T00:22:27.157Z,9.80
2018-04-11T00:24:55.439Z,9.60
2018-04-11T00:27:23.775Z,10.60
2018-04-11T00:29:52.838Z,8.70
2018-04-11T00:32:21.128Z,11.10
2018-04-11T00:34:50.187Z,10.67
2018-04-11T00:37:18.464Z,9.00
2018-04-11T00:39:46.767Z,10.30
2018-04-11T00:42:15.035Z,10.10
2018-04-11T00:44:43.306Z,10.20
2018-04-11T00:47:11.599Z,11.13
2018-04-11T00:49:39.884Z,12.40
2018-04-11T00:52:08.950Z,9.53
2018-04-11T00:54:37.212Z,10.87
2018-04-11T00:57:05.512Z,14.27
2018-04-11T00:59:33.780Z,15.50
2018-04-11T01:02:02.082Z,12.40
2018-04-11T01:04:31.129Z,10.57
2018-04-11T01:06:59.433Z,15.30
2018-04-11T01:09:27.697Z,11.27
2018-04-11T01:11:56.012Z,13.20
2018-04-11T01:14:25.054Z,11.23
2018-04-11T01:16:53.399Z,13.03
2018-04-11T01:19:21.679Z,14.33
2018-04-11T01:21:49.972Z,21.33
2018-04-11T01:24:18.242Z,15.40
2018-04-11T01:26:46.567Z,12.30
2018-04-11T01:29:14.807Z,15.23
2018-04-11T01:31:43.092Z,13.10
2018-04-11T01:34:11.447Z,15.70
2018-04-11T01:36:39.800Z,11.80
2018-04-11T01:39:09.022Z,12.03
2018-04-11T01:41:37.396Z,13.80
2018-04-11T01:44:05.734Z,12.13
2018-04-11T01:46:34.878Z,16.00
2018-04-11T01:49:03.222Z,13.93
2018-04-11T01:51:32.375Z,15.50
2018-04-11T01:54:00.671Z,12.67
2018-04-11T01:56:28.972Z,11.53
2018-04-11T01:58:57.323Z,11.30
2018-04-11T02:01:25.592Z,9.73
2018-04-11T02:03:53.879Z,10.13
2018-04-11T02:06:22.162Z,12.90
2018-04-11T02:08:50.447Z,11.00
2018-04-11T02:11:18.725Z,13.47
2018-04-11T02:13:47.021Z,16.67
2018-04-11T02:16:15.314Z,17.70
2018-04-11T02:18:43.615Z,17.43
2018-04-11T02:21:11.894Z,17.67
2018-04-11T02:23:40.182Z,16.33
2018-04-11T02:26:08.471Z,17.70
2018-04-11T02:28:36.762Z,15.67
2018-04-11T02:31:05.815Z,17.93
2018-04-11T02:33:34.098Z,18.10
2018-04-11T02:36:02.403Z,16.93
2018-04-11T02:38:30.694Z,24.13
2018-04-11T02:40:59.736Z,15.60
2018-04-11T02:43:28.021Z,13.83
2018-04-11T02:45:56.311Z,15.40
2018-04-11T02:48:24.603Z,19.00
2018-04-11T02:50:52.939Z,15.60
2018-04-11T02:53:22.321Z,18.77
2018-04-11T02:55:50.610Z,10.67
2018-04-11T02:58:18.888Z,13.40
2018-04-11T03:00:47.175Z,13.00
2018-04-11T03:03:15.451Z,12.23
2018-04-11T03:05:43.756Z,17.03
2018-04-11T03:08:12.030Z,14.30
2018-04-11T03:10:41.115Z,12.20
2018-04-11T03:13:10.147Z,13.43
2018-04-11T03:15:39.198Z,15.70
2018-04-11T03:18:07.468Z,21.10
2018-04-11T03:20:35.761Z,19.03
2018-04-11T03:23:04.024Z,17.20
2018-04-11T03:25:32.325Z,25.03
2018-04-11T03:28:00.607Z,20.17
2018-04-11T03:30:28.956Z,23.93
2018-04-11T03:32:57.223Z,15.67
2018-04-11T03:35:25.566Z,20.33
2018-04-11T03:37:53.871Z,17.97
2018-04-11T03:40:22.151Z,19.67
2018-04-11T03:42:50.432Z,18.40
2018-04-11T03:45:18.760Z,15.80
2018-04-11T03:47:47.806Z,13.77
2018-04-11T03:50:16.095Z,17.47
2018-04-11T03:52:44.376Z,17.50
2018-04-11T03:55:12.671Z,15.37
2018-04-11T03:57:40.968Z,16.70
2018-04-11T04:00:09.231Z,18.13
2018-04-11T04:02:38.298Z,15.03
2018-04-11T04:05:06.582Z,14.53
2018-04-11T04:07:34.945Z,16.37
2018-04-11T04:10:03.213Z,19.87
2018-04-11T04:12:32.270Z,19.53
2018-04-11T04:15:18.217Z,18.93
2018-04-11T04:18:04.479Z,16.17
2018-04-11T04:20:37.675Z,15.97
2018-04-11T04:23:05.975Z,20.10
2018-04-11T04:25:34.281Z,22.50
2018-04-11T04:28:03.475Z,19.33
2018-04-11T04:30:32.525Z,20.27
2018-04-11T04:33:00.861Z,18.97
2018-04-11T04:35:29.944Z,17.43
2018-04-11T04:37:59.085Z,21.37
2018-04-11T04:40:27.442Z,19.55
2018-04-11T04:42:55.831Z,21.30
2018-04-11T04:45:24.201Z,18.47
2018-04-11T04:47:52.626Z,17.97
2018-04-11T04:50:21.007Z,21.67
2018-04-11T04:52:49.361Z,18.33
2018-04-11T04:55:19.257Z,16.30
2018-04-11T04:57:47.625Z,19.97
2018-04-11T05:00:15.979Z,18.23
2018-04-11T05:02:45.137Z,23.13
2018-04-11T05:05:13.480Z,22.00
2018-04-11T05:07:41.867Z,21.70
2018-04-11T05:10:10.219Z,24.90
2018-04-11T05:12:38.590Z,21.92
2018-04-11T05:15:07.667Z,15.43
2018-04-11T05:17:35.949Z,19.60
2018-04-11T05:20:04.263Z,21.20
2018-04-11T05:22:32.540Z,16.67
2018-04-11T05:25:00.892Z,22.00
2018-04-11T05:27:29.162Z,20.70
2018-04-11T05:29:57.447Z,21.23
2018-04-11T05:32:26.483Z,19.00
2018-04-11T05:34:54.767Z,18.70
2018-04-11T05:37:23.041Z,17.07
2018-04-11T05:39:51.323Z,16.37
2018-04-11T05:42:19.595Z,18.57
2018-04-11T05:44:47.897Z,16.57
2018-04-11T05:47:16.164Z,17.77
2018-04-11T05:49:45.252Z,18.30
2018-04-11T05:52:13.572Z,18.50
2018-04-11T05:54:42.622Z,16.83
2018-04-11T05:57:10.903Z,15.67
2018-04-11T05:59:39.191Z,16.80
2018-04-11T06:02:07.462Z,22.13
2018-04-11T06:04:35.749Z,21.27
2018-04-11T06:07:04.039Z,21.37
2018-04-11T06:09:32.347Z,18.63
2018-04-11T06:12:00.689Z,23.92
2018-04-11T06:14:28.994Z,19.37
2018-04-11T06:16:57.310Z,20.20
2018-04-11T06:19:25.598Z,21.70
2018-04-11T06:21:53.887Z,19.70
2018-04-11T06:24:22.157Z,22.03
2018-04-11T06:26:50.493Z,22.30
2018-04-11T06:29:18.847Z,20.97
2018-04-11T06:31:47.919Z,23.03
2018-04-11T06:34:16.186Z,18.70
2018-04-11T06:36:44.499Z,22.70
2018-04-11T06:39:13.536Z,20.10
2018-04-11T06:41:41.823Z,19.43
2018-04-11T06:44:10.086Z,27.60
2018-04-11T06:46:38.378Z,23.97
2018-04-11T06:49:06.654Z,22.17
2018-04-11T06:51:34.967Z,20.60
2018-04-11T06:54:04.011Z,19.60
2018-04-11T06:56:32.315Z,24.10
2018-04-11T06:59:00.581Z,23.17
2018-04-11T07:01:28.925Z,28.13
2018-04-11T07:03:57.156Z,25.80
2018-04-11T07:06:25.456Z,23.03
2018-04-11T07:08:54.498Z,27.90
2018-04-11T07:11:22.782Z,24.70
2018-04-11T07:13:51.047Z,23.63
2018-04-11T07:16:19.336Z,22.50
2018-04-11T07:18:47.604Z,18.50
2018-04-11T07:21:15.903Z,19.90
2018-04-11T07:23:44.199Z,18.70
2018-04-11T07:26:13.241Z,19.30
2018-04-11T07:28:41.523Z,17.20
2018-04-11T07:31:09.799Z,26.03
2018-04-11T07:33:38.086Z,18.50
2018-04-11T07:36:07.187Z,18.97
2018-04-11T07:38:36.275Z,20.50
2018-04-11T07:41:04.573Z,24.50
2018-04-11T07:43:32.861Z,17.63
2018-04-11T07:46:01.974Z,21.57
2018-04-11T07:48:30.212Z,17.97
2018-04-11T07:50:58.510Z,16.57
2018-04-11T07:53:27.565Z,14.20
2018-04-11T07:55:55.852Z,15.37
2018-04-11T07:58:24.135Z,16.10
2018-04-11T08:00:52.413Z,18.87
2018-04-11T08:03:20.784Z,12.70
2018-04-11T08:05:49.012Z,18.67
2018-04-11T08:08:17.296Z,11.87
2018-04-11T08:10:45.560Z,11.43
2018-04-11T08:13:13.836Z,13.63
2018-04-11T08:15:42.114Z,12.10
2018-04-11T08:18:10.442Z,10.63
2018-04-11T08:20:38.663Z,10.10
2018-04-11T08:23:06.945Z,10.37
2018-04-11T08:25:35.299Z,9.70
2018-04-11T08:28:04.343Z,7.10
2018-04-11T08:30:33.955Z,7.22
2018-04-11T08:33:02.227Z,7.83
2018-04-11T08:35:30.520Z,10.27
2018-04-11T08:37:58.802Z,10.47
2018-04-11T08:40:27.084Z,11.60
2018-04-11T08:42:55.343Z,12.83
2018-04-11T08:45:23.648Z,11.20
2018-04-11T08:47:51.917Z,11.30
2018-04-11T08:50:20.270Z,16.63
2018-04-11T08:52:48.565Z,15.23
2018-04-11T08:55:16.839Z,9.60
2018-04-11T08:57:45.116Z,12.40
2018-04-11T09:00:13.412Z,13.77
2018-04-11T09:02:42.474Z,13.73
2018-04-11T09:05:10.755Z,9.60
2018-04-11T09:07:39.039Z,13.63
2018-04-11T09:10:07.353Z,10.67
2018-04-11T09:12:36.406Z,10.97
2018-04-11T09:15:04.695Z,9.90
2018-04-11T09:17:32.972Z,11.10
2018-04-11T09:20:01.256Z,13.10
2018-04-11T09:22:29.570Z,8.43
2018-04-11T09:24:57.876Z,7.47
2018-04-11T09:27:26.144Z,8.50
2018-04-11T09:29:54.437Z,9.90
2018-04-11T09:32:22.711Z,11.50
2018-04-11T09:34:51.045Z,10.30
2018-04-11T09:37:19.365Z,9.00
2018-04-11T09:39:47.648Z,6.53
2018-04-11T09:42:15.944Z,9.63
2018-04-11T09:44:44.215Z,8.70
2018-04-11T09:47:12.507Z,11.80
2018-04-11T09:49:41.538Z,7.00
2018-04-11T09:52:09.822Z,8.10
2018-04-11T09:54:38.079Z,6.23
2018-04-11T09:57:06.366Z,7.43
2018-04-11T09:59:34.649Z,8.37
2018-04-11T10:02:06.770Z,7.30
2018-04-11T10:04:35.805Z,8.40
2018-04-11T10:07:04.091Z,6.10
2018-04-11T10:09:32.374Z,5.47
2018-04-11T10:12:00.695Z,6.50
2018-04-11T10:14:29.736Z,6.43
2018-04-11T10:16:58.030Z,6.40
2018-04-11T10:19:26.301Z,5.80
2018-04-11T10:21:54.579Z,6.40
2018-04-11T10:24:22.835Z,7.40
2018-04-11T10:26:51.120Z,8.90
2018-04-11T10:29:19.388Z,7.23
2018-04-11T10:31:47.746Z,7.13
2018-04-11T10:34:16.016Z,6.50
2018-04-11T10:36:45.066Z,4.93
2018-04-11T10:39:13.345Z,6.73
2018-04-11T10:41:41.623Z,6.27
2018-04-11T10:44:09.939Z,6.47
2018-04-11T10:46:38.217Z,8.57
2018-04-11T10:49:07.261Z,5.70
2018-04-11T10:51:35.524Z,6.13
2018-04-11T10:54:03.856Z,6.67
2018-04-11T10:56:32.258Z,7.40
2018-04-11T10:59:00.610Z,7.60
2018-04-11T11:01:28.930Z,7.17
2018-04-11T11:03:57.275Z,7.07
2018-04-11T11:06:25.607Z,6.80
2018-04-11T11:08:53.986Z,7.47
2018-04-11T11:11:22.366Z,8.70
2018-04-11T11:13:51.447Z,11.03
2018-04-11T11:16:19.764Z,9.30
2018-04-11T11:18:48.078Z,9.03
2018-04-11T11:21:16.339Z,9.15
2018-04-11T11:23:44.655Z,8.90
2018-04-11T11:26:12.930Z,10.13
2018-04-11T11:28:41.223Z,7.60
2018-04-11T11:31:09.492Z,8.80
2018-04-11T11:33:37.799Z,8.13
2018-04-11T11:36:06.067Z,8.73
2018-04-11T11:38:34.347Z,10.17
2018-04-11T11:41:02.632Z,9.17
2018-04-11T11:43:31.670Z,8.43
2018-04-11T11:46:00.019Z,7.50
2018-04-11T11:48:28.282Z,10.70
2018-04-11T11:50:57.335Z,9.10
2018-04-11T11:53:25.654Z,9.87
2018-04-11T11:55:54.704Z,8.33
2018-04-11T11:58:22.967Z,8.10
2018-04-11T12:00:51.260Z,7.10
2018-04-11T12:03:19.523Z,10.30
2018-04-11T12:05:47.803Z,8.87
2018-04-11T12:08:16.091Z,9.73
2018-04-11T12:10:44.374Z,8.13
2018-04-11T12:13:12.631Z,7.53
2018-04-11T12:15:40.915Z,8.80
2018-04-11T12:18:09.187Z,7.90
2018-04-11T12:20:37.493Z,7.90
2018-04-11T12:23:05.786Z,8.00
2018-04-11T12:25:34.836Z,7.30
2018-04-11T12:28:03.093Z,7.87
2018-04-11T12:30:31.399Z,6.40
2018-04-11T12:32:59.671Z,10.13
2018-04-11T12:35:27.948Z,7.13
2018-04-11T12:37:56.235Z,6.97
2018-04-11T12:40:24.491Z,7.40
2018-04-11T12:42:52.805Z,5.97
2018-04-11T12:45:21.063Z,6.30
2018-04-11T12:47:49.390Z,4.90
2018-04-11T12:50:17.662Z,5.97
2018-04-11T12:52:45.953Z,5.03
2018-04-11T12:55:14.206Z,5.13
2018-04-11T12:57:43.266Z,3.50
2018-04-11T13:00:11.532Z,3.27
2018-04-11T13:02:39.816Z,3.40
2018-04-11T13:05:08.138Z,4.90
2018-04-11T13:07:37.186Z,3.70
2018-04-11T13:10:05.472Z,2.57
2018-04-11T13:12:33.761Z,3.00
2018-04-11T13:15:02.046Z,1.70
2018-04-11T13:17:30.323Z,2.53
2018-04-11T13:19:59.355Z,2.37
2018-04-11T13:22:27.638Z,1.60
2018-04-11T13:24:55.900Z,1.60
2018-04-11T13:27:24.184Z,1.93
2018-04-11T13:29:52.453Z,1.67
2018-04-11T13:32:20.737Z,2.03
2018-04-11T13:34:48.995Z,2.03
2018-04-11T13:37:17.281Z,1.50
2018-04-11T13:39:45.620Z,2.03
2018-04-11T13:42:14.664Z,2.03
2018-04-11T13:44:42.938Z,1.70
2018-04-11T13:47:12.023Z,1.40
2018-04-11T13:49:40.337Z,1.53
2018-04-11T13:52:08.583Z,1.90
2018-04-11T13:54:36.901Z,1.90
2018-04-11T13:57:05.167Z,1.90
2018-04-11T13:59:33.464Z,2.27
2018-04-11T14:02:01.741Z,2.13
2018-04-11T14:04:30.030Z,1.43
2018-04-11T14:06:59.059Z,2.13
2018-04-11T14:09:27.354Z,1.30
2018-04-11T14:11:55.618Z,1.43
2018-04-11T14:14:23.926Z,1.90
2018-04-11T14:16:52.166Z,2.00
2018-04-11T14:19:20.459Z,2.00
2018-04-11T14:21:48.743Z,1.70
2018-04-11T14:24:17.023Z,3.00
2018-04-11T14:26:45.293Z,1.57
2018-04-11T14:29:13.571Z,2.80
2018-04-11T14:31:41.848Z,1.87
2018-04-11T14:34:10.128Z,2.23
2018-04-11T14:36:38.395Z,0.87
2018-04-11T14:39:06.679Z,1.70
2018-04-11T14:41:34.943Z,1.33
2018-04-11T14:44:03.230Z,1.17
2018-04-11T14:46:31.503Z,2.93
2018-04-11T14:48:59.766Z,1.07
2018-04-11T14:51:28.051Z,0.73
2018-04-11T14:53:56.316Z,0.90
2018-04-11T14:56:24.595Z,0.90
2018-04-11T14:58:52.901Z,1.67
2018-04-11T15:01:21.180Z,1.33
2018-04-11T15:03:49.447Z,2.03
2018-04-11T15:06:17.728Z,1.80
2018-04-11T15:08:45.994Z,1.33
2018-04-11T15:11:14.275Z,0.80
2018-04-11T15:13:42.552Z,1.23
2018-04-11T15:16:10.831Z,0.90
2018-04-11T15:18:39.102Z,0.80
2018-04-11T15:21:07.476Z,1.00
2018-04-11T15:23:35.735Z,0.70
2018-04-11T15:26:04.026Z,1.57
2018-04-11T15:28:32.291Z,1.80
2018-04-11T15:31:00.608Z,1.33
2018-04-11T15:33:28.876Z,0.90
2018-04-11T15:35:57.182Z,1.03
2018-04-11T15:38:25.460Z,4.70
2018-04-11T15:40:53.747Z,5.10
2018-04-11T15:43:22.008Z,0.70
2018-04-11T15:45:51.075Z,1.33
2018-04-11T15:48:19.344Z,2.43
2018-04-11T15:50:47.639Z,1.00
2018-04-11T15:53:15.916Z,1.47
2018-04-11T15:55:44.959Z,2.10
2018-04-11T15:58:13.235Z,0.73
2018-04-11T16:00:41.490Z,1.27
2018-04-11T16:03:09.783Z,1.17
2018-04-11T16:05:38.047Z,0.47
2018-04-11T16:08:06.338Z,0.70
2018-04-11T16:10:34.606Z,0.70
2018-04-11T16:15:37.406Z,1.33
2018-04-11T16:18:05.699Z,0.50
2018-04-11T16:20:33.976Z,6.57
2018-04-11T16:23:02.292Z,0.60
2018-04-11T16:25:30.591Z,1.30
2018-04-11T16:27:59.750Z,0.67
2018-04-11T16:30:28.021Z,0.50
2018-04-11T16:32:56.323Z,0.73
2018-04-11T16:35:25.353Z,0.60
2018-04-11T16:37:53.639Z,1.50
2018-04-11T16:40:21.927Z,0.53
2018-04-11T16:42:50.206Z,1.23
2018-04-11T16:45:18.472Z,2.00
2018-04-11T16:47:46.756Z,1.40
2018-04-11T16:50:15.016Z,1.00
2018-04-11T16:52:43.296Z,2.50
2018-04-11T16:55:11.557Z,1.00
2018-04-11T16:57:39.849Z,0.57
2018-04-11T17:00:08.104Z,0.60
2018-04-11T17:02:36.383Z,0.82
2018-04-11T17:05:04.671Z,0.67
2018-04-11T17:07:32.931Z,0.70
2018-04-11T17:10:01.231Z,0.60
2018-04-11T17:12:29.505Z,1.37
2018-04-11T17:14:57.799Z,0.80
2018-04-11T17:17:26.824Z,1.17
2018-04-11T17:19:55.171Z,2.20
2018-04-11T17:22:41.401Z,1.30
2018-04-11T17:25:27.591Z,0.97
2018-04-11T17:28:14.522Z,0.60
2018-04-11T17:30:57.773Z,1.10
2018-04-11T17:33:26.083Z,1.27
2018-04-11T17:35:54.453Z,3.03
2018-04-11T17:38:23.060Z,1.10
2018-04-11T17:40:52.623Z,0.90
2018-04-11T17:43:22.251Z,0.60
2018-04-11T17:45:52.103Z,1.40
2018-04-11T17:48:21.964Z,2.60
2018-04-11T17:50:51.948Z,0.90
2018-04-11T17:53:21.195Z,3.10
2018-04-11T17:55:50.414Z,1.00
2018-04-11T17:58:19.696Z,1.20
2018-04-11T18:00:49.109Z,0.93
2018-04-11T18:03:18.396Z,1.80
2018-04-11T18:05:48.510Z,1.70
2018-04-11T18:08:18.329Z,1.83
2018-04-11T18:10:48.186Z,1.10
2018-04-11T18:13:18.044Z,1.00
2018-04-11T18:15:47.466Z,0.93
2018-04-11T18:18:16.809Z,1.47
2018-04-11T18:20:46.386Z,2.77
2018-04-11T18:23:16.224Z,1.90
2018-04-11T18:25:46.811Z,4.50
2018-04-11T18:28:16.961Z,6.77
2018-04-11T18:30:47.109Z,2.70
2018-04-11T18:33:17.922Z,2.17
2018-04-11T18:35:49.573Z,2.17
2018-04-11T18:38:19.427Z,3.43
2018-04-11T18:40:50.018Z,2.13
2018-04-11T18:43:19.905Z,1.50
2018-04-11T18:45:50.112Z,3.07
2018-04-11T18:48:19.387Z,1.87
2018-04-11T18:50:49.639Z,1.23
2018-04-11T18:53:18.996Z,1.80
2018-04-11T18:55:48.834Z,1.10
2018-04-11T18:58:18.576Z,1.70
2018-04-11T19:00:49.055Z,0.98
2018-04-11T19:03:18.573Z,0.73
2018-04-11T19:05:48.987Z,1.73
2018-04-11T19:08:19.163Z,1.93
2018-04-11T19:10:48.634Z,2.90
2018-04-11T19:13:18.344Z,2.50
2018-04-11T19:15:48.134Z,1.48
2018-04-11T19:18:17.731Z,1.33
2018-04-11T19:20:48.553Z,1.23
2018-04-11T19:23:18.035Z,1.47
2018-04-11T19:25:49.259Z,3.37
2018-04-11T19:28:19.476Z,1.20
2018-04-11T19:30:49.714Z,2.10
2018-04-11T19:33:19.371Z,2.13
2018-04-11T19:35:48.777Z,1.00
2018-04-11T19:38:18.982Z,1.87
2018-04-11T19:40:49.088Z,1.90
2018-04-11T19:43:18.636Z,1.37
2018-04-11T19:45:49.308Z,1.00
2018-04-11T19:48:18.854Z,1.07
2018-04-11T19:50:49.344Z,1.90
2018-04-11T19:53:18.800Z,1.80
2018-04-11T19:55:49.386Z,1.92
2018-04-11T19:58:18.885Z,1.37
2018-04-11T20:00:49.146Z,1.87
2018-04-11T20:03:18.695Z,1.13
2018-04-11T20:05:49.964Z,1.58
2018-04-11T20:08:19.411Z,4.50
2018-04-11T20:10:49.674Z,2.33
2018-04-11T20:13:19.285Z,1.20
2018-04-11T20:15:49.583Z,2.07
2018-04-11T20:18:19.115Z,1.63
2018-04-11T20:20:48.947Z,1.30
2018-04-11T20:23:18.483Z,1.27
2018-04-11T20:25:49.749Z,1.80
2018-04-11T20:28:19.478Z,2.33
2018-04-11T20:30:49.749Z,2.40
2018-04-11T20:33:19.178Z,2.30
2018-04-11T20:35:50.654Z,2.45
2018-04-11T20:38:20.204Z,2.30
2018-04-11T20:40:49.495Z,3.90
2018-04-11T20:43:18.861Z,2.83
2018-04-11T20:45:49.276Z,2.40
2018-04-11T20:48:18.617Z,1.73
2018-04-11T20:50:49.971Z,2.70
2018-04-11T20:53:19.376Z,2.40
2018-04-11T20:55:49.286Z,2.47
2018-04-11T20:58:18.551Z,3.67
2018-04-11T21:00:47.919Z,3.10
2018-04-11T21:03:17.181Z,4.00
2018-04-11T21:05:46.501Z,3.67
2018-04-11T21:08:15.843Z,3.43
2018-04-11T21:10:45.959Z,2.00
2018-04-11T21:13:15.941Z,2.90
2018-04-11T21:15:45.161Z,2.60
2018-04-11T21:18:13.948Z,2.10
2018-04-11T21:20:42.584Z,2.60
2018-04-11T21:23:11.697Z,5.90
2018-04-11T21:25:40.105Z,2.70
2018-04-11T21:28:08.474Z,3.77
2018-04-11T21:30:36.833Z,2.30
2018-04-11T21:33:05.895Z,2.93
2018-04-11T21:35:34.157Z,2.60
2018-04-11T21:38:02.470Z,3.20
2018-04-11T21:40:30.743Z,3.20
2018-04-11T21:42:59.028Z,3.03
2018-04-11T21:45:27.292Z,4.17
2018-04-11T21:47:55.567Z,4.27
2018-04-11T21:50:23.836Z,3.63
2018-04-11T21:52:52.112Z,3.83
2018-04-11T21:55:20.383Z,5.60
2018-04-11T21:57:48.664Z,5.37
2018-04-11T22:00:16.946Z,6.30
2018-04-11T22:02:45.259Z,3.40
2018-04-11T22:05:14.287Z,3.60
2018-04-11T22:07:42.621Z,5.83
2018-04-11T22:10:10.988Z,5.10
2018-04-11T22:12:39.286Z,4.05
2018-04-11T22:15:08.385Z,5.03
2018-04-11T22:17:36.646Z,5.43
2018-04-11T22:20:04.920Z,4.83
2018-04-11T22:22:33.277Z,6.27
2018-04-11T22:25:01.544Z,5.03
2018-04-11T22:27:29.817Z,5.73
2018-04-11T22:29:58.088Z,5.87
2018-04-11T22:32:26.358Z,5.78
2018-04-11T22:34:54.731Z,5.17
2018-04-11T22:37:23.089Z,4.40
2018-04-11T22:39:51.471Z,6.80
2018-04-11T22:42:19.879Z,8.83
2018-04-11T22:44:48.210Z,7.67
2018-04-11T22:47:16.576Z,8.67
2018-04-11T22:49:45.698Z,11.67
2018-04-11T22:52:14.053Z,11.07
2018-04-11T22:54:43.162Z,12.80
2018-04-11T22:57:11.508Z,11.95
2018-04-11T22:59:39.869Z,12.23
2018-04-11T23:02:08.222Z,15.57
2018-04-11T23:04:36.584Z,16.00
2018-04-11T23:07:04.906Z,18.10
2018-04-11T23:09:33.271Z,17.80
2018-04-11T23:12:01.672Z,23.03
2018-04-11T23:14:30.047Z,24.37
2018-04-11T23:16:58.392Z,26.70
2018-04-11T23:19:26.761Z,29.50
2018-04-11T23:21:55.095Z,28.40
2018-04-11T23:24:24.229Z,29.30
2018-04-11T23:26:52.579Z,29.73
2018-04-11T23:29:21.727Z,36.40
2018-04-11T23:31:50.088Z,38.13
2018-04-11T23:34:18.396Z,37.93
2018-04-11T23:36:46.687Z,40.33
2018-04-11T23:39:14.982Z,45.37
2018-04-11T23:41:43.258Z,40.53
2018-04-11T23:44:11.540Z,40.60
2018-04-11T23:46:39.841Z,37.77
2018-04-11T23:49:08.134Z,42.10
2018-04-11T23:51:36.410Z,44.60
2018-04-11T23:54:04.675Z,38.67
2018-04-11T23:56:32.976Z,45.60
2018-04-11T23:59:01.271Z,45.57
